sensor_id;sensor_type;location;lat;lon;timestamp;P1;durP1;ratioP1;P2;durP2;ratioP2
53871;SDS011;39787;53.174;5.798;2023-08-06T00:00:08;8.57;;;6.67;;
53871;SDS011;39787;53.174;5.798;2023-08-06T00:01:09;9.85;;;6.47;;
53871;SDS011;39787;53.174;5.798;2023-08-06T00:02:09;11.67;;;6.90;;
53871;SDS011;39787;53.174;5.798;2023-08-06T00:03:09;10.23;;;7.13;;
53871;SDS011;39787;53.174;5.798;2023-08-06T00:04:10;11.03;;;7.83;;
53871;SDS011;39787;53.174;5.798;2023-08-06T00:05:11;9.03;;;7.27;;
53871;SDS011;39787;53.174;5.798;2023-08-06T00:06:11;11.37;;;8.13;;
53871;SDS011;39787;53.174;5.798;2023-08-06T00:07:12;11.00;;;8.87;;
53871;SDS011;39787;53.174;5.798;2023-08-06T00:08:12;11.77;;;8.63;;
53871;SDS011;39787;53.174;5.798;2023-08-06T00:09:13;9.93;;;7.97;;
53871;SDS011;39787;53.174;5.798;2023-08-06T00:10:13;13.67;;;9.20;;
53871;SDS011;39787;53.174;5.798;2023-08-06T00:11:14;11.97;;;8.50;;
53871;SDS011;39787;53.174;5.798;2023-08-06T00:12:14;16.73;;;9.90;;
53871;SDS011;39787;53.174;5.798;2023-08-06T00:13:15;14.27;;;9.67;;
53871;SDS011;39787;53.174;5.798;2023-08-06T00:14:16;14.43;;;9.93;;
53871;SDS011;39787;53.174;5.798;2023-08-06T00:15:16;16.27;;;10.53;;
53871;SDS011;39787;53.174;5.798;2023-08-06T00:16:17;13.30;;;10.73;;
53871;SDS011;39787;53.174;5.798;2023-08-06T00:17:17;15.07;;;10.80;;
53871;SDS011;39787;53.174;5.798;2023-08-06T00:18:18;16.98;;;10.75;;
53871;SDS011;39787;53.174;5.798;2023-08-06T00:19:18;16.57;;;11.03;;
53871;SDS011;39787;53.174;5.798;2023-08-06T00:20:19;13.50;;;10.80;;
53871;SDS011;39787;53.174;5.798;2023-08-06T00:21:19;18.07;;;11.13;;
53871;SDS011;39787;53.174;5.798;2023-08-06T00:22:20;15.13;;;10.77;;
53871;SDS011;39787;53.174;5.798;2023-08-06T00:23:20;21.07;;;11.20;;
53871;SDS011;39787;53.174;5.798;2023-08-06T00:24:21;16.13;;;11.27;;
53871;SDS011;39787;53.174;5.798;2023-08-06T00:25:21;17.70;;;12.27;;
53871;SDS011;39787;53.174;5.798;2023-08-06T00:26:22;17.43;;;11.57;;
53871;SDS011;39787;53.174;5.798;2023-08-06T00:27:22;17.20;;;11.93;;
53871;SDS011;39787;53.174;5.798;2023-08-06T00:28:23;17.57;;;11.60;;
53871;SDS011;39787;53.174;5.798;2023-08-06T00:29:23;16.47;;;11.80;;
53871;SDS011;39787;53.174;5.798;2023-08-06T00:30:24;16.17;;;11.90;;
53871;SDS011;39787;53.174;5.798;2023-08-06T00:31:24;17.30;;;12.57;;
53871;SDS011;39787;53.174;5.798;2023-08-06T00:32:24;16.43;;;11.80;;
53871;SDS011;39787;53.174;5.798;2023-08-06T00:33:25;18.23;;;12.17;;
53871;SDS011;39787;53.174;5.798;2023-08-06T00:34:25;20.33;;;12.33;;
53871;SDS011;39787;53.174;5.798;2023-08-06T00:35:26;15.47;;;11.73;;
53871;SDS011;39787;53.174;5.798;2023-08-06T00:36:26;26.57;;;12.97;;
53871;SDS011;39787;53.174;5.798;2023-08-06T00:37:27;18.57;;;12.90;;
53871;SDS011;39787;53.174;5.798;2023-08-06T00:38:27;24.87;;;12.93;;
53871;SDS011;39787;53.174;5.798;2023-08-06T00:39:28;19.53;;;13.27;;
53871;SDS011;39787;53.174;5.798;2023-08-06T00:40:28;20.77;;;13.43;;
53871;SDS011;39787;53.174;5.798;2023-08-06T00:41:29;19.23;;;12.90;;
53871;SDS011;39787;53.174;5.798;2023-08-06T00:42:29;19.23;;;12.77;;
53871;SDS011;39787;53.174;5.798;2023-08-06T00:43:30;19.00;;;12.70;;
53871;SDS011;39787;53.174;5.798;2023-08-06T00:44:30;18.07;;;12.90;;
53871;SDS011;39787;53.174;5.798;2023-08-06T00:45:31;18.67;;;12.97;;
53871;SDS011;39787;53.174;5.798;2023-08-06T00:46:34;21.35;;;13.02;;
53871;SDS011;39787;53.174;5.798;2023-08-06T00:47:35;20.80;;;13.67;;
53871;SDS011;39787;53.174;5.798;2023-08-06T00:48:36;19.85;;;12.88;;
53871;SDS011;39787;53.174;5.798;2023-08-06T00:49:36;19.83;;;13.77;;
53871;SDS011;39787;53.174;5.798;2023-08-06T00:51:38;24.23;;;13.68;;
53871;SDS011;39787;53.174;5.798;2023-08-06T00:52:39;21.67;;;13.60;;
53871;SDS011;39787;53.174;5.798;2023-08-06T00:53:40;22.60;;;14.18;;
53871;SDS011;39787;53.174;5.798;2023-08-06T00:54:41;19.17;;;13.63;;
53871;SDS011;39787;53.174;5.798;2023-08-06T00:55:43;23.90;;;13.70;;
53871;SDS011;39787;53.174;5.798;2023-08-06T00:56:45;19.90;;;13.50;;
53871;SDS011;39787;53.174;5.798;2023-08-06T00:57:47;21.38;;;13.02;;
53871;SDS011;39787;53.174;5.798;2023-08-06T00:58:48;20.08;;;13.82;;
53871;SDS011;39787;53.174;5.798;2023-08-06T00:59:48;18.52;;;13.27;;
53871;SDS011;39787;53.174;5.798;2023-08-06T01:00:49;23.30;;;14.23;;
53871;SDS011;39787;53.174;5.798;2023-08-06T01:01:50;20.27;;;14.27;;
53871;SDS011;39787;53.174;5.798;2023-08-06T01:02:51;19.83;;;13.75;;
53871;SDS011;39787;53.174;5.798;2023-08-06T01:03:53;23.10;;;14.15;;
53871;SDS011;39787;53.174;5.798;2023-08-06T01:04:54;22.13;;;14.43;;
53871;SDS011;39787;53.174;5.798;2023-08-06T01:05:54;32.20;;;14.20;;
53871;SDS011;39787;53.174;5.798;2023-08-06T01:07:02;22.70;;;14.40;;
53871;SDS011;39787;53.174;5.798;2023-08-06T01:11:59;21.77;;;13.98;;
53871;SDS011;39787;53.174;5.798;2023-08-06T01:14:54;19.02;;;12.98;;
53871;SDS011;39787;53.174;5.798;2023-08-06T01:16:04;19.38;;;14.23;;
53871;SDS011;39787;53.174;5.798;2023-08-06T01:17:06;19.25;;;13.75;;
53871;SDS011;39787;53.174;5.798;2023-08-06T01:18:09;18.77;;;14.18;;
53871;SDS011;39787;53.174;5.798;2023-08-06T01:19:17;16.35;;;13.25;;
53871;SDS011;39787;53.174;5.798;2023-08-06T01:20:18;20.40;;;13.52;;
53871;SDS011;39787;53.174;5.798;2023-08-06T01:21:18;22.90;;;14.50;;
53871;SDS011;39787;53.174;5.798;2023-08-06T01:22:19;19.80;;;14.60;;
53871;SDS011;39787;53.174;5.798;2023-08-06T01:23:19;21.57;;;14.27;;
53871;SDS011;39787;53.174;5.798;2023-08-06T01:24:20;22.85;;;14.80;;
53871;SDS011;39787;53.174;5.798;2023-08-06T01:25:21;19.40;;;14.27;;
53871;SDS011;39787;53.174;5.798;2023-08-06T01:26:44;21.30;;;14.38;;
53871;SDS011;39787;53.174;5.798;2023-08-06T01:27:48;20.23;;;14.23;;
53871;SDS011;39787;53.174;5.798;2023-08-06T01:30:24;24.40;;;14.52;;
53871;SDS011;39787;53.174;5.798;2023-08-06T01:31:30;16.45;;;12.80;;
53871;SDS011;39787;53.174;5.798;2023-08-06T01:32:34;19.92;;;14.27;;
53871;SDS011;39787;53.174;5.798;2023-08-06T01:33:38;22.13;;;14.38;;
53871;SDS011;39787;53.174;5.798;2023-08-06T01:34:43;21.60;;;14.07;;
53871;SDS011;39787;53.174;5.798;2023-08-06T01:35:47;20.10;;;14.70;;
53871;SDS011;39787;53.174;5.798;2023-08-06T01:36:50;21.10;;;14.55;;
53871;SDS011;39787;53.174;5.798;2023-08-06T01:37:52;19.15;;;13.68;;
53871;SDS011;39787;53.174;5.798;2023-08-06T01:38:52;20.83;;;14.68;;
53871;SDS011;39787;53.174;5.798;2023-08-06T01:39:53;22.65;;;14.88;;
53871;SDS011;39787;53.174;5.798;2023-08-06T01:40:53;26.20;;;14.77;;
53871;SDS011;39787;53.174;5.798;2023-08-06T01:41:54;23.23;;;14.87;;
53871;SDS011;39787;53.174;5.798;2023-08-06T01:42:54;22.00;;;14.47;;
53871;SDS011;39787;53.174;5.798;2023-08-06T01:43:55;21.70;;;14.10;;
53871;SDS011;39787;53.174;5.798;2023-08-06T01:44:55;23.17;;;15.10;;
53871;SDS011;39787;53.174;5.798;2023-08-06T01:45:56;20.90;;;14.37;;
53871;SDS011;39787;53.174;5.798;2023-08-06T01:46:56;25.77;;;15.67;;
53871;SDS011;39787;53.174;5.798;2023-08-06T01:47:57;18.40;;;14.70;;
53871;SDS011;39787;53.174;5.798;2023-08-06T01:48:57;19.60;;;14.83;;
53871;SDS011;39787;53.174;5.798;2023-08-06T01:49:58;18.43;;;14.40;;
53871;SDS011;39787;53.174;5.798;2023-08-06T01:50:58;20.67;;;14.60;;
53871;SDS011;39787;53.174;5.798;2023-08-06T01:51:59;19.93;;;14.63;;
53871;SDS011;39787;53.174;5.798;2023-08-06T01:52:59;21.63;;;14.83;;
53871;SDS011;39787;53.174;5.798;2023-08-06T01:54:00;21.27;;;14.23;;
53871;SDS011;39787;53.174;5.798;2023-08-06T01:55:00;26.93;;;15.07;;
53871;SDS011;39787;53.174;5.798;2023-08-06T01:56:01;25.07;;;15.57;;
53871;SDS011;39787;53.174;5.798;2023-08-06T01:57:01;24.03;;;14.80;;
53871;SDS011;39787;53.174;5.798;2023-08-06T01:58:02;20.03;;;14.63;;
53871;SDS011;39787;53.174;5.798;2023-08-06T01:59:02;22.47;;;14.70;;
53871;SDS011;39787;53.174;5.798;2023-08-06T02:00:03;20.47;;;14.10;;
53871;SDS011;39787;53.174;5.798;2023-08-06T02:01:03;25.30;;;14.88;;
53871;SDS011;39787;53.174;5.798;2023-08-06T02:02:04;21.80;;;14.50;;
53871;SDS011;39787;53.174;5.798;2023-08-06T02:03:04;19.17;;;14.50;;
53871;SDS011;39787;53.174;5.798;2023-08-06T02:04:05;23.77;;;14.93;;
53871;SDS011;39787;53.174;5.798;2023-08-06T02:05:05;24.80;;;15.13;;
53871;SDS011;39787;53.174;5.798;2023-08-06T02:06:07;23.00;;;15.95;;
53871;SDS011;39787;53.174;5.798;2023-08-06T02:07:07;21.33;;;15.48;;
53871;SDS011;39787;53.174;5.798;2023-08-06T02:08:08;27.40;;;15.00;;
53871;SDS011;39787;53.174;5.798;2023-08-06T02:09:08;22.40;;;14.30;;
53871;SDS011;39787;53.174;5.798;2023-08-06T02:10:09;24.53;;;15.40;;
53871;SDS011;39787;53.174;5.798;2023-08-06T02:11:09;26.90;;;16.10;;
53871;SDS011;39787;53.174;5.798;2023-08-06T02:12:10;22.07;;;15.40;;
53871;SDS011;39787;53.174;5.798;2023-08-06T02:13:10;21.57;;;15.03;;
53871;SDS011;39787;53.174;5.798;2023-08-06T02:14:11;22.00;;;15.85;;
53871;SDS011;39787;53.174;5.798;2023-08-06T02:15:12;27.07;;;15.40;;
53871;SDS011;39787;53.174;5.798;2023-08-06T02:16:12;21.43;;;15.37;;
53871;SDS011;39787;53.174;5.798;2023-08-06T02:17:13;24.50;;;16.33;;
53871;SDS011;39787;53.174;5.798;2023-08-06T02:18:13;24.03;;;15.90;;
53871;SDS011;39787;53.174;5.798;2023-08-06T02:19:14;25.73;;;15.02;;
53871;SDS011;39787;53.174;5.798;2023-08-06T02:20:14;21.53;;;15.17;;
53871;SDS011;39787;53.174;5.798;2023-08-06T02:21:15;24.63;;;16.90;;
53871;SDS011;39787;53.174;5.798;2023-08-06T02:22:15;27.80;;;16.57;;
53871;SDS011;39787;53.174;5.798;2023-08-06T02:23:16;21.40;;;14.90;;
53871;SDS011;39787;53.174;5.798;2023-08-06T02:24:16;24.23;;;16.17;;
53871;SDS011;39787;53.174;5.798;2023-08-06T02:25:17;24.70;;;16.17;;
53871;SDS011;39787;53.174;5.798;2023-08-06T02:26:17;27.43;;;16.70;;
53871;SDS011;39787;53.174;5.798;2023-08-06T02:27:18;34.20;;;15.63;;
53871;SDS011;39787;53.174;5.798;2023-08-06T02:28:18;25.23;;;15.50;;
53871;SDS011;39787;53.174;5.798;2023-08-06T02:29:19;23.87;;;15.77;;
53871;SDS011;39787;53.174;5.798;2023-08-06T02:30:19;23.67;;;15.63;;
53871;SDS011;39787;53.174;5.798;2023-08-06T02:31:20;24.33;;;15.67;;
53871;SDS011;39787;53.174;5.798;2023-08-06T02:32:20;21.40;;;14.87;;
53871;SDS011;39787;53.174;5.798;2023-08-06T02:33:21;22.53;;;15.50;;
53871;SDS011;39787;53.174;5.798;2023-08-06T02:34:21;24.27;;;15.60;;
53871;SDS011;39787;53.174;5.798;2023-08-06T02:35:22;24.63;;;16.37;;
53871;SDS011;39787;53.174;5.798;2023-08-06T02:36:22;21.63;;;14.97;;
53871;SDS011;39787;53.174;5.798;2023-08-06T02:37:23;23.33;;;15.87;;
53871;SDS011;39787;53.174;5.798;2023-08-06T02:38:23;25.40;;;16.30;;
53871;SDS011;39787;53.174;5.798;2023-08-06T02:39:24;23.07;;;14.87;;
53871;SDS011;39787;53.174;5.798;2023-08-06T02:40:24;25.33;;;16.10;;
53871;SDS011;39787;53.174;5.798;2023-08-06T02:41:25;29.83;;;15.67;;
53871;SDS011;39787;53.174;5.798;2023-08-06T02:42:25;28.73;;;16.17;;
53871;SDS011;39787;53.174;5.798;2023-08-06T02:43:26;25.93;;;15.73;;
53871;SDS011;39787;53.174;5.798;2023-08-06T02:44:27;26.07;;;15.97;;
53871;SDS011;39787;53.174;5.798;2023-08-06T02:45:28;24.25;;;15.40;;
53871;SDS011;39787;53.174;5.798;2023-08-06T02:46:29;26.77;;;15.77;;
53871;SDS011;39787;53.174;5.798;2023-08-06T02:47:29;25.63;;;15.47;;
53871;SDS011;39787;53.174;5.798;2023-08-06T02:48:30;25.87;;;16.30;;
53871;SDS011;39787;53.174;5.798;2023-08-06T02:49:30;23.17;;;14.83;;
53871;SDS011;39787;53.174;5.798;2023-08-06T02:50:31;24.10;;;15.17;;
53871;SDS011;39787;53.174;5.798;2023-08-06T02:51:37;24.65;;;15.65;;
53871;SDS011;39787;53.174;5.798;2023-08-06T02:52:37;24.27;;;15.30;;
53871;SDS011;39787;53.174;5.798;2023-08-06T02:53:38;26.33;;;15.63;;
53871;SDS011;39787;53.174;5.798;2023-08-06T02:54:38;22.43;;;15.13;;
53871;SDS011;39787;53.174;5.798;2023-08-06T02:55:44;22.37;;;15.30;;
53871;SDS011;39787;53.174;5.798;2023-08-06T02:56:48;29.30;;;15.57;;
53871;SDS011;39787;53.174;5.798;2023-08-06T02:57:48;22.73;;;15.53;;
53871;SDS011;39787;53.174;5.798;2023-08-06T02:58:49;26.67;;;16.13;;
53871;SDS011;39787;53.174;5.798;2023-08-06T02:59:49;21.57;;;14.97;;
53871;SDS011;39787;53.174;5.798;2023-08-06T03:00:59;30.17;;;15.73;;
53871;SDS011;39787;53.174;5.798;2023-08-06T03:02:04;21.33;;;15.10;;
53871;SDS011;39787;53.174;5.798;2023-08-06T03:03:04;25.60;;;15.52;;
53871;SDS011;39787;53.174;5.798;2023-08-06T03:04:05;21.30;;;14.27;;
53871;SDS011;39787;53.174;5.798;2023-08-06T03:05:06;24.73;;;15.00;;
53871;SDS011;39787;53.174;5.798;2023-08-06T03:06:06;29.30;;;15.98;;
53871;SDS011;39787;53.174;5.798;2023-08-06T03:07:07;22.00;;;14.47;;
53871;SDS011;39787;53.174;5.798;2023-08-06T03:08:07;21.53;;;15.23;;
53871;SDS011;39787;53.174;5.798;2023-08-06T03:09:08;21.10;;;15.20;;
53871;SDS011;39787;53.174;5.798;2023-08-06T03:10:08;26.13;;;15.13;;
53871;SDS011;39787;53.174;5.798;2023-08-06T03:11:09;24.15;;;15.50;;
53871;SDS011;39787;53.174;5.798;2023-08-06T03:12:10;23.67;;;15.67;;
53871;SDS011;39787;53.174;5.798;2023-08-06T03:13:10;21.47;;;15.00;;
53871;SDS011;39787;53.174;5.798;2023-08-06T03:14:11;27.77;;;15.97;;
53871;SDS011;39787;53.174;5.798;2023-08-06T03:15:11;26.00;;;14.93;;
53871;SDS011;39787;53.174;5.798;2023-08-06T03:16:12;25.00;;;15.47;;
53871;SDS011;39787;53.174;5.798;2023-08-06T03:17:12;21.17;;;15.23;;
53871;SDS011;39787;53.174;5.798;2023-08-06T03:18:12;23.40;;;14.90;;
53871;SDS011;39787;53.174;5.798;2023-08-06T03:19:13;21.77;;;14.80;;
53871;SDS011;39787;53.174;5.798;2023-08-06T03:20:13;21.90;;;15.13;;
53871;SDS011;39787;53.174;5.798;2023-08-06T03:21:14;23.13;;;15.00;;
53871;SDS011;39787;53.174;5.798;2023-08-06T03:22:14;23.07;;;15.40;;
53871;SDS011;39787;53.174;5.798;2023-08-06T03:23:15;21.87;;;14.33;;
53871;SDS011;39787;53.174;5.798;2023-08-06T03:24:15;22.73;;;15.03;;
53871;SDS011;39787;53.174;5.798;2023-08-06T03:25:16;26.63;;;15.27;;
53871;SDS011;39787;53.174;5.798;2023-08-06T03:26:17;24.97;;;15.00;;
53871;SDS011;39787;53.174;5.798;2023-08-06T03:27:17;21.50;;;14.57;;
53871;SDS011;39787;53.174;5.798;2023-08-06T03:28:18;23.07;;;14.97;;
53871;SDS011;39787;53.174;5.798;2023-08-06T03:29:18;24.30;;;14.20;;
53871;SDS011;39787;53.174;5.798;2023-08-06T03:30:19;23.00;;;13.97;;
53871;SDS011;39787;53.174;5.798;2023-08-06T03:31:19;25.10;;;14.70;;
53871;SDS011;39787;53.174;5.798;2023-08-06T03:32:19;24.33;;;15.60;;
53871;SDS011;39787;53.174;5.798;2023-08-06T03:33:20;24.67;;;14.40;;
53871;SDS011;39787;53.174;5.798;2023-08-06T03:34:20;23.03;;;13.80;;
53871;SDS011;39787;53.174;5.798;2023-08-06T03:35:21;23.70;;;14.70;;
53871;SDS011;39787;53.174;5.798;2023-08-06T03:36:21;22.07;;;14.07;;
53871;SDS011;39787;53.174;5.798;2023-08-06T03:37:22;19.47;;;13.37;;
53871;SDS011;39787;53.174;5.798;2023-08-06T03:38:22;21.73;;;13.53;;
53871;SDS011;39787;53.174;5.798;2023-08-06T03:39:23;18.93;;;13.03;;
53871;SDS011;39787;53.174;5.798;2023-08-06T03:40:23;22.67;;;13.13;;
53871;SDS011;39787;53.174;5.798;2023-08-06T03:41:24;20.57;;;13.17;;
53871;SDS011;39787;53.174;5.798;2023-08-06T03:42:24;19.83;;;13.47;;
53871;SDS011;39787;53.174;5.798;2023-08-06T03:43:25;25.93;;;12.97;;
53871;SDS011;39787;53.174;5.798;2023-08-06T03:44:25;19.77;;;12.83;;
53871;SDS011;39787;53.174;5.798;2023-08-06T03:45:26;27.00;;;14.50;;
53871;SDS011;39787;53.174;5.798;2023-08-06T03:46:26;20.37;;;12.70;;
53871;SDS011;39787;53.174;5.798;2023-08-06T03:47:26;17.77;;;12.70;;
53871;SDS011;39787;53.174;5.798;2023-08-06T03:48:27;18.43;;;13.33;;
53871;SDS011;39787;53.174;5.798;2023-08-06T03:49:27;24.93;;;13.90;;
53871;SDS011;39787;53.174;5.798;2023-08-06T03:50:28;23.00;;;13.37;;
53871;SDS011;39787;53.174;5.798;2023-08-06T03:51:28;19.97;;;13.00;;
53871;SDS011;39787;53.174;5.798;2023-08-06T03:52:29;20.70;;;13.60;;
53871;SDS011;39787;53.174;5.798;2023-08-06T03:53:29;21.60;;;12.90;;
53871;SDS011;39787;53.174;5.798;2023-08-06T03:54:30;21.00;;;13.20;;
53871;SDS011;39787;53.174;5.798;2023-08-06T03:55:30;18.20;;;12.40;;
53871;SDS011;39787;53.174;5.798;2023-08-06T03:56:31;21.70;;;13.63;;
53871;SDS011;39787;53.174;5.798;2023-08-06T03:57:31;18.27;;;13.30;;
53871;SDS011;39787;53.174;5.798;2023-08-06T03:58:32;20.73;;;13.10;;
53871;SDS011;39787;53.174;5.798;2023-08-06T03:59:32;19.20;;;13.40;;
53871;SDS011;39787;53.174;5.798;2023-08-06T04:00:33;17.30;;;12.87;;
53871;SDS011;39787;53.174;5.798;2023-08-06T04:01:33;20.33;;;12.67;;
53871;SDS011;39787;53.174;5.798;2023-08-06T04:02:34;22.67;;;13.03;;
53871;SDS011;39787;53.174;5.798;2023-08-06T04:03:34;21.10;;;12.40;;
53871;SDS011;39787;53.174;5.798;2023-08-06T04:04:34;24.70;;;14.50;;
53871;SDS011;39787;53.174;5.798;2023-08-06T04:05:35;18.40;;;12.90;;
53871;SDS011;39787;53.174;5.798;2023-08-06T04:06:35;26.13;;;13.13;;
53871;SDS011;39787;53.174;5.798;2023-08-06T04:07:36;19.90;;;13.57;;
53871;SDS011;39787;53.174;5.798;2023-08-06T04:08:36;21.13;;;14.13;;
53871;SDS011;39787;53.174;5.798;2023-08-06T04:09:52;25.90;;;13.70;;
53871;SDS011;39787;53.174;5.798;2023-08-06T04:10:54;21.42;;;13.23;;
53871;SDS011;39787;53.174;5.798;2023-08-06T04:11:54;22.93;;;12.70;;
53871;SDS011;39787;53.174;5.798;2023-08-06T04:12:55;17.23;;;12.97;;
53871;SDS011;39787;53.174;5.798;2023-08-06T04:13:55;18.77;;;13.43;;
53871;SDS011;39787;53.174;5.798;2023-08-06T04:14:57;21.33;;;13.33;;
53871;SDS011;39787;53.174;5.798;2023-08-06T04:16:02;24.42;;;13.57;;
53871;SDS011;39787;53.174;5.798;2023-08-06T04:17:03;20.65;;;12.85;;
53871;SDS011;39787;53.174;5.798;2023-08-06T04:18:03;25.33;;;13.25;;
53871;SDS011;39787;53.174;5.798;2023-08-06T04:19:04;21.07;;;13.27;;
53871;SDS011;39787;53.174;5.798;2023-08-06T04:20:04;21.03;;;13.73;;
53871;SDS011;39787;53.174;5.798;2023-08-06T04:21:08;21.45;;;13.88;;
53871;SDS011;39787;53.174;5.798;2023-08-06T04:22:08;23.27;;;14.77;;
53871;SDS011;39787;53.174;5.798;2023-08-06T04:23:08;19.17;;;13.20;;
53871;SDS011;39787;53.174;5.798;2023-08-06T04:24:09;26.43;;;14.80;;
53871;SDS011;39787;53.174;5.798;2023-08-06T04:25:10;21.03;;;14.03;;
53871;SDS011;39787;53.174;5.798;2023-08-06T04:26:10;19.67;;;13.93;;
53871;SDS011;39787;53.174;5.798;2023-08-06T04:27:11;20.03;;;14.13;;
53871;SDS011;39787;53.174;5.798;2023-08-06T04:28:12;24.92;;;15.18;;
53871;SDS011;39787;53.174;5.798;2023-08-06T04:29:12;22.27;;;13.83;;
53871;SDS011;39787;53.174;5.798;2023-08-06T04:30:13;21.70;;;14.00;;
53871;SDS011;39787;53.174;5.798;2023-08-06T04:31:13;22.50;;;14.63;;
53871;SDS011;39787;53.174;5.798;2023-08-06T04:32:14;22.33;;;15.27;;
53871;SDS011;39787;53.174;5.798;2023-08-06T04:33:14;24.37;;;14.30;;
53871;SDS011;39787;53.174;5.798;2023-08-06T04:34:15;23.73;;;15.10;;
53871;SDS011;39787;53.174;5.798;2023-08-06T04:35:15;30.87;;;15.63;;
53871;SDS011;39787;53.174;5.798;2023-08-06T04:36:16;20.20;;;14.63;;
53871;SDS011;39787;53.174;5.798;2023-08-06T04:37:16;22.67;;;14.70;;
53871;SDS011;39787;53.174;5.798;2023-08-06T04:38:17;23.77;;;14.87;;
53871;SDS011;39787;53.174;5.798;2023-08-06T04:39:17;21.13;;;15.00;;
53871;SDS011;39787;53.174;5.798;2023-08-06T04:40:18;20.80;;;14.90;;
53871;SDS011;39787;53.174;5.798;2023-08-06T04:41:18;20.90;;;14.77;;
53871;SDS011;39787;53.174;5.798;2023-08-06T04:42:18;27.47;;;15.27;;
53871;SDS011;39787;53.174;5.798;2023-08-06T04:43:19;27.97;;;15.70;;
53871;SDS011;39787;53.174;5.798;2023-08-06T04:44:20;20.70;;;14.87;;
53871;SDS011;39787;53.174;5.798;2023-08-06T04:45:21;28.88;;;15.13;;
53871;SDS011;39787;53.174;5.798;2023-08-06T04:46:22;21.73;;;14.80;;
53871;SDS011;39787;53.174;5.798;2023-08-06T04:47:22;21.27;;;15.10;;
53871;SDS011;39787;53.174;5.798;2023-08-06T04:48:23;21.47;;;15.47;;
53871;SDS011;39787;53.174;5.798;2023-08-06T04:49:24;20.87;;;14.33;;
53871;SDS011;39787;53.174;5.798;2023-08-06T04:50:25;21.55;;;15.43;;
53871;SDS011;39787;53.174;5.798;2023-08-06T04:51:25;25.97;;;15.60;;
53871;SDS011;39787;53.174;5.798;2023-08-06T04:52:26;21.27;;;15.93;;
53871;SDS011;39787;53.174;5.798;2023-08-06T04:53:26;20.87;;;16.27;;
53871;SDS011;39787;53.174;5.798;2023-08-06T04:54:27;28.77;;;16.23;;
53871;SDS011;39787;53.174;5.798;2023-08-06T04:55:27;20.73;;;15.33;;
53871;SDS011;39787;53.174;5.798;2023-08-06T04:56:28;25.33;;;15.37;;
53871;SDS011;39787;53.174;5.798;2023-08-06T04:57:28;24.25;;;16.15;;
53871;SDS011;39787;53.174;5.798;2023-08-06T04:58:29;24.10;;;15.43;;
53871;SDS011;39787;53.174;5.798;2023-08-06T04:59:29;26.10;;;15.77;;
53871;SDS011;39787;53.174;5.798;2023-08-06T05:00:30;22.20;;;15.73;;
53871;SDS011;39787;53.174;5.798;2023-08-06T05:01:31;26.05;;;16.23;;
53871;SDS011;39787;53.174;5.798;2023-08-06T05:02:32;26.27;;;16.40;;
53871;SDS011;39787;53.174;5.798;2023-08-06T05:03:32;20.83;;;15.97;;
53871;SDS011;39787;53.174;5.798;2023-08-06T05:04:33;19.43;;;15.40;;
53871;SDS011;39787;53.174;5.798;2023-08-06T05:05:33;25.97;;;15.70;;
53871;SDS011;39787;53.174;5.798;2023-08-06T05:06:34;22.63;;;16.30;;
53871;SDS011;39787;53.174;5.798;2023-08-06T05:07:34;20.53;;;15.23;;
53871;SDS011;39787;53.174;5.798;2023-08-06T05:08:34;23.77;;;15.40;;
53871;SDS011;39787;53.174;5.798;2023-08-06T05:09:35;21.00;;;15.63;;
53871;SDS011;39787;53.174;5.798;2023-08-06T05:10:35;25.97;;;15.90;;
53871;SDS011;39787;53.174;5.798;2023-08-06T05:11:36;28.63;;;16.73;;
53871;SDS011;39787;53.174;5.798;2023-08-06T05:12:36;22.93;;;15.53;;
53871;SDS011;39787;53.174;5.798;2023-08-06T05:13:37;28.47;;;15.90;;
53871;SDS011;39787;53.174;5.798;2023-08-06T05:14:37;22.13;;;15.17;;
53871;SDS011;39787;53.174;5.798;2023-08-06T05:15:38;27.33;;;16.30;;
53871;SDS011;39787;53.174;5.798;2023-08-06T05:16:39;24.52;;;15.52;;
53871;SDS011;39787;53.174;5.798;2023-08-06T05:17:39;25.37;;;15.63;;
53871;SDS011;39787;53.174;5.798;2023-08-06T05:18:39;29.07;;;16.13;;
53871;SDS011;39787;53.174;5.798;2023-08-06T05:19:40;23.10;;;15.10;;
53871;SDS011;39787;53.174;5.798;2023-08-06T05:20:41;19.37;;;15.07;;
53871;SDS011;39787;53.174;5.798;2023-08-06T05:21:42;23.52;;;16.30;;
53871;SDS011;39787;53.174;5.798;2023-08-06T05:22:43;19.23;;;14.67;;
53871;SDS011;39787;53.174;5.798;2023-08-06T05:23:44;21.45;;;15.75;;
53871;SDS011;39787;53.174;5.798;2023-08-06T05:24:44;27.97;;;16.03;;
53871;SDS011;39787;53.174;5.798;2023-08-06T05:25:44;22.43;;;16.00;;
53871;SDS011;39787;53.174;5.798;2023-08-06T05:26:45;21.53;;;15.47;;
53871;SDS011;39787;53.174;5.798;2023-08-06T05:27:45;27.90;;;15.77;;
53871;SDS011;39787;53.174;5.798;2023-08-06T05:28:46;23.37;;;15.33;;
53871;SDS011;39787;53.174;5.798;2023-08-06T05:29:47;24.53;;;15.97;;
53871;SDS011;39787;53.174;5.798;2023-08-06T05:30:48;25.73;;;15.40;;
53871;SDS011;39787;53.174;5.798;2023-08-06T05:31:48;22.00;;;15.00;;
53871;SDS011;39787;53.174;5.798;2023-08-06T05:32:49;20.20;;;15.17;;
53871;SDS011;39787;53.174;5.798;2023-08-06T05:33:49;19.60;;;14.77;;
53871;SDS011;39787;53.174;5.798;2023-08-06T05:34:50;24.08;;;15.00;;
53871;SDS011;39787;53.174;5.798;2023-08-06T05:35:51;20.33;;;15.77;;
53871;SDS011;39787;53.174;5.798;2023-08-06T05:36:51;29.80;;;14.83;;
53871;SDS011;39787;53.174;5.798;2023-08-06T05:37:52;19.50;;;15.20;;
53871;SDS011;39787;53.174;5.798;2023-08-06T05:38:53;19.38;;;13.65;;
53871;SDS011;39787;53.174;5.798;2023-08-06T05:39:54;18.10;;;13.90;;
53871;SDS011;39787;53.174;5.798;2023-08-06T05:40:54;15.47;;;13.47;;
53871;SDS011;39787;53.174;5.798;2023-08-06T05:41:54;16.53;;;13.37;;
53871;SDS011;39787;53.174;5.798;2023-08-06T05:42:55;18.33;;;14.07;;
53871;SDS011;39787;53.174;5.798;2023-08-06T05:43:55;18.00;;;13.40;;
53871;SDS011;39787;53.174;5.798;2023-08-06T05:44:56;16.17;;;13.47;;
53871;SDS011;39787;53.174;5.798;2023-08-06T05:45:56;15.93;;;12.20;;
53871;SDS011;39787;53.174;5.798;2023-08-06T05:46:57;15.83;;;12.83;;
53871;SDS011;39787;53.174;5.798;2023-08-06T05:47:58;16.02;;;12.65;;
53871;SDS011;39787;53.174;5.798;2023-08-06T05:48:58;16.13;;;12.47;;
53871;SDS011;39787;53.174;5.798;2023-08-06T05:49:59;18.43;;;12.27;;
53871;SDS011;39787;53.174;5.798;2023-08-06T05:51:00;13.50;;;11.32;;
53871;SDS011;39787;53.174;5.798;2023-08-06T05:52:01;15.77;;;11.88;;
53871;SDS011;39787;53.174;5.798;2023-08-06T05:53:02;13.45;;;11.07;;
53871;SDS011;39787;53.174;5.798;2023-08-06T05:54:03;14.65;;;11.55;;
53871;SDS011;39787;53.174;5.798;2023-08-06T05:55:04;17.50;;;11.07;;
53871;SDS011;39787;53.174;5.798;2023-08-06T05:56:05;14.10;;;11.27;;
53871;SDS011;39787;53.174;5.798;2023-08-06T05:57:06;12.80;;;11.02;;
53871;SDS011;39787;53.174;5.798;2023-08-06T05:58:07;14.65;;;10.88;;
53871;SDS011;39787;53.174;5.798;2023-08-06T05:59:08;14.50;;;11.45;;
53871;SDS011;39787;53.174;5.798;2023-08-06T06:00:09;14.13;;;11.35;;
53871;SDS011;39787;53.174;5.798;2023-08-06T06:01:10;12.30;;;10.93;;
53871;SDS011;39787;53.174;5.798;2023-08-06T06:02:11;16.77;;;11.43;;
53871;SDS011;39787;53.174;5.798;2023-08-06T06:03:11;12.00;;;10.38;;
53871;SDS011;39787;53.174;5.798;2023-08-06T06:04:12;11.75;;;10.55;;
53871;SDS011;39787;53.174;5.798;2023-08-06T06:05:13;12.13;;;10.02;;